sensor_id;sensor_type;location;lat;lon;timestamp;pressure;altitude;pressure_sealevel;temperature;humidity
40502;BME280;29631;49.168;9.848;2023-07-31T00:00:30;96687.16;;;22.43;76.97
40502;BME280;29631;49.168;9.848;2023-07-31T00:02:56;96687.44;;;22.41;77.35
40502;BME280;29631;49.168;9.848;2023-07-31T00:05:22;96657.94;;;22.31;77.45
40502;BME280;29631;49.168;9.848;2023-07-31T00:07:47;96688.22;;;22.42;77.10
40502;BME280;29631;49.168;9.848;2023-07-31T00:10:13;96665.44;;;22.34;76.99
40502;BME280;29631;49.168;9.848;2023-07-31T00:12:44;96662.78;;;22.29;77.09
40502;BME280;29631;49.168;9.848;2023-07-31T00:15:10;96674.59;;;22.33;77.17
40502;BME280;29631;49.168;9.848;2023-07-31T00:17:37;96658.22;;;22.25;77.63
40502;BME280;29631;49.168;9.848;2023-07-31T00:20:03;96668.16;;;22.29;77.13
40502;BME280;29631;49.168;9.848;2023-07-31T00:22:29;96672.47;;;22.30;77.42
40502;BME280;29631;49.168;9.848;2023-07-31T00:24:56;96670.03;;;22.29;77.78
40502;BME280;29631;49.168;9.848;2023-07-31T00:27:22;96673.53;;;22.29;77.28
40502;BME280;29631;49.168;9.848;2023-07-31T00:29:48;96674.03;;;22.31;77.59
40502;BME280;29631;49.168;9.848;2023-07-31T00:32:14;96668.97;;;22.30;77.46
40502;BME280;29631;49.168;9.848;2023-07-31T00:34:39;96642.13;;;22.20;77.72
40502;BME280;29631;49.168;9.848;2023-07-31T00:37:05;96639.69;;;22.18;77.37
40502;BME280;29631;49.168;9.848;2023-07-31T00:39:34;96660.34;;;22.33;78.07
40502;BME280;29631;49.168;9.848;2023-07-31T00:42:00;96673.72;;;22.43;78.17
40502;BME280;29631;49.168;9.848;2023-07-31T00:44:25;96648.78;;;22.27;78.31
40502;BME280;29631;49.168;9.848;2023-07-31T00:46:51;96614.19;;;22.16;78.45
40502;BME280;29631;49.168;9.848;2023-07-31T00:49:18;96641.31;;;22.29;78.10
40502;BME280;29631;49.168;9.848;2023-07-31T00:51:43;96647.19;;;22.26;77.74
40502;BME280;29631;49.168;9.848;2023-07-31T00:54:09;96638.19;;;22.02;77.62
40502;BME280;29631;49.168;9.848;2023-07-31T00:56:37;96648.88;;;22.17;77.76
40502;BME280;29631;49.168;9.848;2023-07-31T00:59:03;96668.69;;;22.26;77.92
40502;BME280;29631;49.168;9.848;2023-07-31T01:01:29;96661.69;;;22.25;77.90
40502;BME280;29631;49.168;9.848;2023-07-31T01:03:54;96665.97;;;22.31;78.20
40502;BME280;29631;49.168;9.848;2023-07-31T01:06:34;96625.56;;;22.03;78.06
40502;BME280;29631;49.168;9.848;2023-07-31T01:09:47;96664.38;;;22.25;78.64
40502;BME280;29631;49.168;9.848;2023-07-31T01:12:20;96632.00;;;22.02;78.36
40502;BME280;29631;49.168;9.848;2023-07-31T01:15:05;96656.94;;;22.17;78.35
40502;BME280;29631;49.168;9.848;2023-07-31T01:17:31;96651.00;;;22.15;78.02
40502;BME280;29631;49.168;9.848;2023-07-31T01:20:02;96631.44;;;22.10;78.30
40502;BME280;29631;49.168;9.848;2023-07-31T01:22:31;96656.31;;;22.25;77.88
40502;BME280;29631;49.168;9.848;2023-07-31T01:28:01;96628.78;;;22.05;78.35
40502;BME280;29631;49.168;9.848;2023-07-31T01:30:33;96629.81;;;22.14;78.28
40502;BME280;29631;49.168;9.848;2023-07-31T01:33:01;96628.47;;;22.11;78.44
40502;BME280;29631;49.168;9.848;2023-07-31T01:35:33;96632.75;;;22.17;78.45
40502;BME280;29631;49.168;9.848;2023-07-31T01:37:59;96606.75;;;22.03;78.30
40502;BME280;29631;49.168;9.848;2023-07-31T01:40:25;96600.63;;;21.97;78.48
40502;BME280;29631;49.168;9.848;2023-07-31T01:42:51;96613.44;;;22.05;78.29
40502;BME280;29631;49.168;9.848;2023-07-31T01:45:17;96573.63;;;21.74;78.57
40502;BME280;29631;49.168;9.848;2023-07-31T01:47:42;96614.56;;;21.99;78.62
40502;BME280;29631;49.168;9.848;2023-07-31T01:50:09;96621.50;;;22.10;78.73
40502;BME280;29631;49.168;9.848;2023-07-31T01:52:35;96609.72;;;22.01;78.42
40502;BME280;29631;49.168;9.848;2023-07-31T01:55:00;96606.78;;;21.98;78.56
40502;BME280;29631;49.168;9.848;2023-07-31T01:57:26;96592.56;;;21.92;78.60
40502;BME280;29631;49.168;9.848;2023-07-31T01:59:52;96598.78;;;21.93;78.46
40502;BME280;29631;49.168;9.848;2023-07-31T02:02:21;96606.81;;;21.93;78.87
40502;BME280;29631;49.168;9.848;2023-07-31T02:04:48;96577.91;;;21.80;78.27
40502;BME280;29631;49.168;9.848;2023-07-31T02:07:14;96612.47;;;21.92;78.31
40502;BME280;29631;49.168;9.848;2023-07-31T02:09:40;96608.69;;;21.92;78.77
40502;BME280;29631;49.168;9.848;2023-07-31T02:12:06;96613.53;;;21.95;78.70
40502;BME280;29631;49.168;9.848;2023-07-31T02:14:34;96576.56;;;21.73;78.58
40502;BME280;29631;49.168;9.848;2023-07-31T02:17:00;96590.53;;;21.75;78.57
40502;BME280;29631;49.168;9.848;2023-07-31T02:19:26;96606.59;;;21.85;78.41
40502;BME280;29631;49.168;9.848;2023-07-31T02:21:52;96608.75;;;21.83;78.37
40502;BME280;29631;49.168;9.848;2023-07-31T02:24:17;96611.16;;;21.84;78.66
40502;BME280;29631;49.168;9.848;2023-07-31T02:26:43;96592.13;;;21.76;78.43
40502;BME280;29631;49.168;9.848;2023-07-31T02:29:09;96592.41;;;21.79;78.79
40502;BME280;29631;49.168;9.848;2023-07-31T02:31:35;96521.75;;;21.25;78.15
40502;BME280;29631;49.168;9.848;2023-07-31T02:34:00;96571.28;;;21.58;78.55
40502;BME280;29631;49.168;9.848;2023-07-31T02:36:26;96575.84;;;21.62;78.93
40502;BME280;29631;49.168;9.848;2023-07-31T02:38:52;96541.00;;;21.37;78.72
40502;BME280;29631;49.168;9.848;2023-07-31T02:41:17;96578.78;;;21.61;78.80
40502;BME280;29631;49.168;9.848;2023-07-31T02:43:43;96586.22;;;21.74;78.84
40502;BME280;29631;49.168;9.848;2023-07-31T02:46:09;96602.84;;;21.81;78.97
40502;BME280;29631;49.168;9.848;2023-07-31T02:48:35;96580.88;;;21.74;78.96
40502;BME280;29631;49.168;9.848;2023-07-31T02:51:00;96521.41;;;21.42;79.04
40502;BME280;29631;49.168;9.848;2023-07-31T02:53:26;96566.41;;;21.70;78.81
40502;BME280;29631;49.168;9.848;2023-07-31T02:55:52;96579.78;;;21.75;79.06
40502;BME280;29631;49.168;9.848;2023-07-31T02:58:17;96517.16;;;21.36;79.05
40502;BME280;29631;49.168;9.848;2023-07-31T03:00:44;96534.06;;;21.31;79.19
40502;BME280;29631;49.168;9.848;2023-07-31T03:03:10;96570.22;;;21.59;79.35
40502;BME280;29631;49.168;9.848;2023-07-31T03:05:36;96573.94;;;21.63;79.29
40502;BME280;29631;49.168;9.848;2023-07-31T03:08:01;96551.44;;;21.54;79.57
40502;BME280;29631;49.168;9.848;2023-07-31T03:10:27;96566.44;;;21.60;79.21
40502;BME280;29631;49.168;9.848;2023-07-31T03:12:53;96565.41;;;21.56;79.40
40502;BME280;29631;49.168;9.848;2023-07-31T03:15:18;96564.56;;;21.50;79.42
40502;BME280;29631;49.168;9.848;2023-07-31T03:17:44;96568.59;;;21.48;79.51
40502;BME280;29631;49.168;9.848;2023-07-31T03:20:10;96558.97;;;21.42;79.88
40502;BME280;29631;49.168;9.848;2023-07-31T03:22:36;96567.00;;;21.47;79.64
40502;BME280;29631;49.168;9.848;2023-07-31T03:25:06;96571.06;;;21.39;79.61
40502;BME280;29631;49.168;9.848;2023-07-31T03:27:32;96564.09;;;21.38;80.06
40502;BME280;29631;49.168;9.848;2023-07-31T03:29:59;96562.22;;;21.34;79.95
40502;BME280;29631;49.168;9.848;2023-07-31T03:32:24;96580.44;;;21.42;79.73
40502;BME280;29631;49.168;9.848;2023-07-31T03:34:50;96568.66;;;21.38;79.68
40502;BME280;29631;49.168;9.848;2023-07-31T03:37:16;96575.91;;;21.42;79.93
40502;BME280;29631;49.168;9.848;2023-07-31T03:39:41;96568.13;;;21.36;80.08
40502;BME280;29631;49.168;9.848;2023-07-31T03:42:07;96579.41;;;21.38;80.08
40502;BME280;29631;49.168;9.848;2023-07-31T03:44:33;96581.00;;;21.39;80.42
40502;BME280;29631;49.168;9.848;2023-07-31T03:46:59;96571.59;;;21.41;80.34
40502;BME280;29631;49.168;9.848;2023-07-31T03:49:24;96573.75;;;21.39;80.73
40502;BME280;29631;49.168;9.848;2023-07-31T03:51:50;96571.88;;;21.35;80.73
40502;BME280;29631;49.168;9.848;2023-07-31T03:54:16;96574.03;;;21.38;80.58
40502;BME280;29631;49.168;9.848;2023-07-31T03:56:42;96575.63;;;21.39;80.65
40502;BME280;29631;49.168;9.848;2023-07-31T03:59:07;96577.50;;;21.43;80.79
40502;BME280;29631;49.168;9.848;2023-07-31T04:01:33;96565.44;;;21.36;80.75
40502;BME280;29631;49.168;9.848;2023-07-31T04:03:59;96576.72;;;21.38;80.52
40502;BME280;29631;49.168;9.848;2023-07-31T04:06:24;96577.78;;;21.37;80.45
40502;BME280;29631;49.168;9.848;2023-07-31T04:08:50;96592.00;;;21.42;80.75
40502;BME280;29631;49.168;9.848;2023-07-31T04:11:16;96577.50;;;21.38;81.18
40502;BME280;29631;49.168;9.848;2023-07-31T04:13:42;96567.06;;;21.37;81.01
40502;BME280;29631;49.168;9.848;2023-07-31T04:16:07;96571.63;;;21.36;80.92
40502;BME280;29631;49.168;9.848;2023-07-31T04:18:33;96573.47;;;21.41;80.92
40502;BME280;29631;49.168;9.848;2023-07-31T04:20:59;96573.47;;;21.41;81.19
40502;BME280;29631;49.168;9.848;2023-07-31T04:23:26;96559.53;;;21.39;81.21
40502;BME280;29631;49.168;9.848;2023-07-31T04:25:52;96573.72;;;21.49;80.99
40502;BME280;29631;49.168;9.848;2023-07-31T04:28:18;96569.69;;;21.47;80.99
40502;BME280;29631;49.168;9.848;2023-07-31T04:30:43;96568.06;;;21.51;80.40
40502;BME280;29631;49.168;9.848;2023-07-31T04:33:09;96574.53;;;21.55;80.96
40502;BME280;29631;49.168;9.848;2023-07-31T04:35:35;96566.22;;;21.56;80.73
40502;BME280;29631;49.168;9.848;2023-07-31T04:38:01;96565.94;;;21.53;80.66
40502;BME280;29631;49.168;9.848;2023-07-31T04:40:27;96566.72;;;21.58;80.32
40502;BME280;29631;49.168;9.848;2023-07-31T04:42:52;96558.94;;;21.52;80.58
40502;BME280;29631;49.168;9.848;2023-07-31T04:45:18;96558.94;;;21.52;80.67
40502;BME280;29631;49.168;9.848;2023-07-31T04:47:44;96560.03;;;21.56;80.75
40502;BME280;29631;49.168;9.848;2023-07-31T04:50:10;96555.72;;;21.50;80.69
40502;BME280;29631;49.168;9.848;2023-07-31T04:52:35;96564.84;;;21.54;80.67
40502;BME280;29631;49.168;9.848;2023-07-31T04:55:01;96571.84;;;21.50;81.34
40502;BME280;29631;49.168;9.848;2023-07-31T04:57:27;96579.88;;;21.55;80.95
40502;BME280;29631;49.168;9.848;2023-07-31T04:59:53;96564.06;;;21.53;80.99
40502;BME280;29631;49.168;9.848;2023-07-31T05:02:18;96561.38;;;21.53;81.24
40502;BME280;29631;49.168;9.848;2023-07-31T05:04:44;96559.25;;;21.55;81.19
40502;BME280;29631;49.168;9.848;2023-07-31T05:07:10;96569.97;;;21.55;81.28
40502;BME280;29631;49.168;9.848;2023-07-31T05:09:36;96565.41;;;21.56;81.08
40502;BME280;29631;49.168;9.848;2023-07-31T05:12:01;96550.38;;;21.50;80.97
40502;BME280;29631;49.168;9.848;2023-07-31T05:14:27;96556.03;;;21.53;81.11
40502;BME280;29631;49.168;9.848;2023-07-31T05:16:53;96556.81;;;21.54;81.32
40502;BME280;29631;49.168;9.848;2023-07-31T05:19:19;96560.84;;;21.56;81.12
40502;BME280;29631;49.168;9.848;2023-07-31T05:21:44;96553.88;;;21.55;80.94
40502;BME280;29631;49.168;9.848;2023-07-31T05:24:10;96553.31;;;21.58;81.15
40502;BME280;29631;49.168;9.848;2023-07-31T05:26:36;96554.09;;;21.64;80.97
40502;BME280;29631;49.168;9.848;2023-07-31T05:29:03;96554.09;;;21.64;80.97
40502;BME280;29631;49.168;9.848;2023-07-31T05:31:29;96544.69;;;21.66;80.89
40502;BME280;29631;49.168;9.848;2023-07-31T05:33:55;96550.03;;;21.66;80.95
40502;BME280;29631;49.168;9.848;2023-07-31T05:36:21;96536.41;;;21.58;80.97
40502;BME280;29631;49.168;9.848;2023-07-31T05:38:46;96543.91;;;21.61;81.14
40502;BME280;29631;49.168;9.848;2023-07-31T05:41:12;96555.16;;;21.63;80.95
40502;BME280;29631;49.168;9.848;2023-07-31T05:43:38;96543.94;;;21.56;81.17
40502;BME280;29631;49.168;9.848;2023-07-31T05:46:04;96540.16;;;21.52;81.31
40502;BME280;29631;49.168;9.848;2023-07-31T05:48:30;96534.25;;;21.50;81.12
40502;BME280;29631;49.168;9.848;2023-07-31T05:50:56;96543.94;;;21.51;81.47
40502;BME280;29631;49.168;9.848;2023-07-31T05:53:22;96540.16;;;21.52;81.26
40502;BME280;29631;49.168;9.848;2023-07-31T05:55:47;96538.56;;;21.51;81.44
40502;BME280;29631;49.168;9.848;2023-07-31T05:58:13;96545.53;;;21.52;81.52
40502;BME280;29631;49.168;9.848;2023-07-31T06:00:39;96540.41;;;21.50;81.40
40502;BME280;29631;49.168;9.848;2023-07-31T06:03:04;96556.81;;;21.54;81.27
40502;BME280;29631;49.168;9.848;2023-07-31T06:05:30;96558.41;;;21.55;81.26
40502;BME280;29631;49.168;9.848;2023-07-31T06:07:57;96555.19;;;21.53;81.95
40502;BME280;29631;49.168;9.848;2023-07-31T06:10:22;96552.50;;;21.53;81.84
40502;BME280;29631;49.168;9.848;2023-07-31T06:12:48;96545.81;;;21.55;81.84
40502;BME280;29631;49.168;9.848;2023-07-31T06:15:14;96548.22;;;21.57;81.76
40502;BME280;29631;49.168;9.848;2023-07-31T06:17:40;96545.53;;;21.57;81.75
40502;BME280;29631;49.168;9.848;2023-07-31T06:20:07;96548.72;;;21.64;81.64
40502;BME280;29631;49.168;9.848;2023-07-31T06:22:33;96551.91;;;21.71;81.88
40502;BME280;29631;49.168;9.848;2023-07-31T06:24:59;96558.03;;;21.76;81.87
40502;BME280;29631;49.168;9.848;2023-07-31T06:27:25;96558.28;;;21.85;81.97
40502;BME280;29631;49.168;9.848;2023-07-31T06:29:50;96548.09;;;21.82;81.93
40502;BME280;29631;49.168;9.848;2023-07-31T06:32:16;96541.88;;;21.86;81.59
40502;BME280;29631;49.168;9.848;2023-07-31T06:34:42;96551.78;;;21.91;81.88
40502;BME280;29631;49.168;9.848;2023-07-31T06:37:08;96560.34;;;21.92;81.90
40502;BME280;29631;49.168;9.848;2023-07-31T06:39:34;96551.78;;;21.91;82.06
40502;BME280;29631;49.168;9.848;2023-07-31T06:41:59;96561.44;;;21.96;82.03
40502;BME280;29631;49.168;9.848;2023-07-31T06:44:25;96554.16;;;21.97;81.76
40502;BME280;29631;49.168;9.848;2023-07-31T06:46:51;96547.72;;;21.98;81.88
40502;BME280;29631;49.168;9.848;2023-07-31T06:49:17;96554.13;;;22.02;81.81
40502;BME280;29631;49.168;9.848;2023-07-31T06:51:43;96557.88;;;22.06;81.75
40502;BME280;29631;49.168;9.848;2023-07-31T06:54:09;96559.97;;;22.09;81.67
40502;BME280;29631;49.168;9.848;2023-07-31T06:56:35;96574.44;;;22.18;81.96
40502;BME280;29631;49.168;9.848;2023-07-31T06:59:01;96558.06;;;22.14;81.85
40502;BME280;29631;49.168;9.848;2023-07-31T07:01:26;96550.56;;;22.16;81.77
40502;BME280;29631;49.168;9.848;2023-07-31T07:03:54;96548.94;;;22.15;81.56
40502;BME280;29631;49.168;9.848;2023-07-31T07:06:19;96558.56;;;22.21;82.05
40502;BME280;29631;49.168;9.848;2023-07-31T07:08:45;96561.47;;;22.30;81.47
40502;BME280;29631;49.168;9.848;2023-07-31T07:11:11;96546.19;;;22.30;81.85
40502;BME280;29631;49.168;9.848;2023-07-31T07:13:37;96544.25;;;22.36;81.82
40502;BME280;29631;49.168;9.848;2023-07-31T07:16:03;96533.19;;;22.37;81.45
40502;BME280;29631;49.168;9.848;2023-07-31T07:18:28;96537.50;;;22.38;81.56
40502;BME280;29631;49.168;9.848;2023-07-31T07:20:54;96541.19;;;22.47;81.79
40502;BME280;29631;49.168;9.848;2023-07-31T07:23:22;96537.44;;;22.48;81.95
40502;BME280;29631;49.168;9.848;2023-07-31T07:25:48;96529.31;;;22.53;82.10
40502;BME280;29631;49.168;9.848;2023-07-31T07:28:14;96530.91;;;22.54;81.50
40502;BME280;29631;49.168;9.848;2023-07-31T07:30:40;96524.97;;;22.57;81.50
40502;BME280;29631;49.168;9.848;2023-07-31T07:33:06;96536.00;;;22.56;81.31
40502;BME280;29631;49.168;9.848;2023-07-31T07:35:35;96526.06;;;22.56;81.29
40502;BME280;29631;49.168;9.848;2023-07-31T07:38:04;96531.94;;;22.58;81.36
40502;BME280;29631;49.168;9.848;2023-07-31T07:40:30;96524.41;;;22.60;81.68
40502;BME280;29631;49.168;9.848;2023-07-31T07:42:56;96529.72;;;22.65;81.65
40502;BME280;29631;49.168;9.848;2023-07-31T07:45:21;96524.34;;;22.65;81.57
40502;BME280;29631;49.168;9.848;2023-07-31T07:47:47;96536.66;;;22.71;81.81
40502;BME280;29631;49.168;9.848;2023-07-31T07:50:13;96536.59;;;22.76;81.65
40502;BME280;29631;49.168;9.848;2023-07-31T07:52:38;96527.44;;;22.82;81.35
40502;BME280;29631;49.168;9.848;2023-07-31T07:55:05;96517.94;;;22.89;81.49
40502;BME280;29631;49.168;9.848;2023-07-31T07:57:31;96498.81;;;22.91;81.95
40502;BME280;29631;49.168;9.848;2023-07-31T07:59:57;96512.69;;;23.03;81.75
40502;BME280;29631;49.168;9.848;2023-07-31T08:02:22;96520.69;;;23.08;81.12
40502;BME280;29631;49.168;9.848;2023-07-31T08:04:48;96517.53;;;23.06;81.43
40502;BME280;29631;49.168;9.848;2023-07-31T08:07:14;96516.44;;;23.07;81.69
40502;BME280;29631;49.168;9.848;2023-07-31T08:09:40;96523.13;;;23.09;81.40
40502;BME280;29631;49.168;9.848;2023-07-31T08:12:07;96526.00;;;23.18;81.87
40502;BME280;29631;49.168;9.848;2023-07-31T08:14:33;96517.28;;;23.26;81.83
40502;BME280;29631;49.168;9.848;2023-07-31T08:16:58;96517.16;;;23.36;81.60
40502;BME280;29631;49.168;9.848;2023-07-31T08:19:25;96524.81;;;23.47;81.37
40502;BME280;29631;49.168;9.848;2023-07-31T08:21:50;96512.16;;;23.47;81.08
40502;BME280;29631;49.168;9.848;2023-07-31T08:24:16;96505.69;;;23.48;81.00
40502;BME280;29631;49.168;9.848;2023-07-31T08:26:42;96500.28;;;23.48;81.17
40502;BME280;29631;49.168;9.848;2023-07-31T08:29:08;96505.34;;;23.55;81.66
40502;BME280;29631;49.168;9.848;2023-07-31T08:31:34;96494.78;;;23.58;81.19
40502;BME280;29631;49.168;9.848;2023-07-31T08:34:00;96499.47;;;23.71;81.34
40502;BME280;29631;49.168;9.848;2023-07-31T08:36:26;96499.94;;;23.78;81.23
40502;BME280;29631;49.168;9.848;2023-07-31T08:38:52;96489.78;;;23.89;80.90
40502;BME280;29631;49.168;9.848;2023-07-31T08:41:18;96493.66;;;24.01;81.30
40502;BME280;29631;49.168;9.848;2023-07-31T08:43:48;96487.00;;;24.12;80.83
40502;BME280;29631;49.168;9.848;2023-07-31T08:46:15;96485.75;;;24.23;80.54
40502;BME280;29631;49.168;9.848;2023-07-31T08:48:42;96483.66;;;24.33;80.18
40502;BME280;29631;49.168;9.848;2023-07-31T08:51:08;96472.47;;;24.45;80.60
40502;BME280;29631;49.168;9.848;2023-07-31T08:53:34;96475.66;;;24.47;79.99
40502;BME280;29631;49.168;9.848;2023-07-31T08:56:01;96476.41;;;24.52;80.06
40502;BME280;29631;49.168;9.848;2023-07-31T08:58:32;96479.09;;;24.66;79.87
40502;BME280;29631;49.168;9.848;2023-07-31T09:01:01;96484.03;;;24.77;79.57
40502;BME280;29631;49.168;9.848;2023-07-31T09:03:29;96470.75;;;24.81;79.80
40502;BME280;29631;49.168;9.848;2023-07-31T09:05:58;96473.34;;;24.86;79.48
40502;BME280;29631;49.168;9.848;2023-07-31T09:08:27;96468.94;;;24.89;78.96
40502;BME280;29631;49.168;9.848;2023-07-31T09:11:00;96475.41;;;24.88;78.72
40502;BME280;29631;49.168;9.848;2023-07-31T09:13:30;96482.31;;;24.94;79.45
40502;BME280;29631;49.168;9.848;2023-07-31T09:15:56;96474.22;;;24.94;78.96
40502;BME280;29631;49.168;9.848;2023-07-31T09:18:22;96465.94;;;25.04;78.91
40502;BME280;29631;49.168;9.848;2023-07-31T09:21:04;96475.78;;;25.14;78.67
40502;BME280;29631;49.168;9.848;2023-07-31T09:23:45;96487.47;;;25.23;78.09
40502;BME280;29631;49.168;9.848;2023-07-31T09:26:11;96463.97;;;25.23;78.63
40502;BME280;29631;49.168;9.848;2023-07-31T09:28:53;96450.34;;;25.28;78.19
40502;BME280;29631;49.168;9.848;2023-07-31T09:31:42;96451.06;;;25.34;78.58
40502;BME280;29631;49.168;9.848;2023-07-31T09:34:08;96453.66;;;25.39;77.80
40502;BME280;29631;49.168;9.848;2023-07-31T09:36:41;96393.19;;;24.99;77.83
40502;BME280;29631;49.168;9.848;2023-07-31T09:39:10;96457.63;;;25.41;77.71
40502;BME280;29631;49.168;9.848;2023-07-31T09:41:38;96451.53;;;25.49;77.61
40502;BME280;29631;49.168;9.848;2023-07-31T09:44:04;96416.75;;;25.34;77.89
40502;BME280;29631;49.168;9.848;2023-07-31T09:46:30;96438.47;;;25.43;78.23
40502;BME280;29631;49.168;9.848;2023-07-31T09:49:13;96437.84;;;25.46;77.40
40502;BME280;29631;49.168;9.848;2023-07-31T09:51:41;96422.78;;;25.31;77.86
40502;BME280;29631;49.168;9.848;2023-07-31T09:54:12;96459.84;;;25.53;77.10
40502;BME280;29631;49.168;9.848;2023-07-31T09:56:46;96444.66;;;25.43;77.01
40502;BME280;29631;49.168;9.848;2023-07-31T09:59:17;96442.34;;;25.50;77.38
40502;BME280;29631;49.168;9.848;2023-07-31T10:01:45;96450.31;;;25.55;77.26
40502;BME280;29631;49.168;9.848;2023-07-31T10:04:13;96421.69;;;25.54;76.57
40502;BME280;29631;49.168;9.848;2023-07-31T10:06:40;96436.09;;;25.63;76.56
40502;BME280;29631;49.168;9.848;2023-07-31T10:09:11;96413.84;;;25.44;76.58
40502;BME280;29631;49.168;9.848;2023-07-31T10:11:52;96420.72;;;25.50;76.27
40502;BME280;29631;49.168;9.848;2023-07-31T10:14:22;96407.72;;;25.52;76.48
40502;BME280;29631;49.168;9.848;2023-07-31T10:16:49;96419.88;;;25.63;76.89
40502;BME280;29631;49.168;9.848;2023-07-31T10:19:17;96411.91;;;25.58;76.83
40502;BME280;29631;49.168;9.848;2023-07-31T10:21:43;96410.19;;;25.62;76.52
40502;BME280;29631;49.168;9.848;2023-07-31T10:24:11;96416.88;;;25.64;76.66
40502;BME280;29631;49.168;9.848;2023-07-31T10:26:38;96418.16;;;25.67;76.80
40502;BME280;29631;49.168;9.848;2023-07-31T10:29:05;96412.28;;;25.65;76.38
40502;BME280;29631;49.168;9.848;2023-07-31T10:31:33;96418.03;;;25.72;76.23
40502;BME280;29631;49.168;9.848;2023-07-31T10:33:59;96396.47;;;25.59;76.67
40502;BME280;29631;49.168;9.848;2023-07-31T10:36:26;96401.09;;;25.58;76.46
40502;BME280;29631;49.168;9.848;2023-07-31T10:38:52;96408.47;;;25.66;76.33
40502;BME280;29631;49.168;9.848;2023-07-31T10:41:18;96408.47;;;25.66;76.26
40502;BME280;29631;49.168;9.848;2023-07-31T10:43:46;96400.97;;;25.63;76.08
40502;BME280;29631;49.168;9.848;2023-07-31T10:46:14;96396.69;;;25.62;75.59
40502;BME280;29631;49.168;9.848;2023-07-31T10:48:41;96398.78;;;25.65;75.73
40502;BME280;29631;49.168;9.848;2023-07-31T10:51:09;96376.66;;;25.63;75.62
40502;BME280;29631;49.168;9.848;2023-07-31T10:53:39;96386.44;;;25.72;75.76
40502;BME280;29631;49.168;9.848;2023-07-31T10:56:10;96392.06;;;25.76;75.85
40502;BME280;29631;49.168;9.848;2023-07-31T10:58:44;96393.66;;;25.77;76.04
40502;BME280;29631;49.168;9.848;2023-07-31T11:01:10;96396.22;;;25.82;75.96
40502;BME280;29631;49.168;9.848;2023-07-31T11:03:56;96386.66;;;25.76;75.39
40502;BME280;29631;49.168;9.848;2023-07-31T11:06:22;96367.25;;;25.74;75.80
40502;BME280;29631;49.168;9.848;2023-07-31T11:08:50;96367.25;;;25.74;75.86
40502;BME280;29631;49.168;9.848;2023-07-31T11:11:18;96391.19;;;25.89;75.33
40502;BME280;29631;49.168;9.848;2023-07-31T11:13:52;96371.91;;;25.82;75.65
40502;BME280;29631;49.168;9.848;2023-07-31T11:16:21;96375.63;;;25.94;75.72
40502;BME280;29631;49.168;9.848;2023-07-31T11:18:48;96386.53;;;26.03;75.49
40502;BME280;29631;49.168;9.848;2023-07-31T11:21:23;96391.31;;;26.06;75.16
40502;BME280;29631;49.168;9.848;2023-07-31T11:23:51;96383.34;;;26.01;74.94
40502;BME280;29631;49.168;9.848;2023-07-31T11:26:18;96365.66;;;25.95;75.08
40502;BME280;29631;49.168;9.848;2023-07-31T11:28:47;96378.41;;;26.03;74.79
40502;BME280;29631;49.168;9.848;2023-07-31T11:31:13;96380.63;;;26.01;75.06
40502;BME280;29631;49.168;9.848;2023-07-31T11:33:39;96339.22;;;25.70;75.02
40502;BME280;29631;49.168;9.848;2023-07-31T11:36:05;96393.53;;;26.04;74.75
40502;BME280;29631;49.168;9.848;2023-07-31T11:38:32;96376.31;;;26.00;75.20
40502;BME280;29631;49.168;9.848;2023-07-31T11:41:01;96386.03;;;26.01;75.12
40502;BME280;29631;49.168;9.848;2023-07-31T11:43:34;96385.59;;;26.07;74.75
40502;BME280;29631;49.168;9.848;2023-07-31T11:46:02;96380.25;;;26.16;74.92
40502;BME280;29631;49.168;9.848;2023-07-31T11:48:35;96366.22;;;26.14;75.46
40502;BME280;29631;49.168;9.848;2023-07-31T11:51:04;96348.88;;;26.06;75.23
40502;BME280;29631;49.168;9.848;2023-07-31T11:53:49;96361.88;;;26.26;75.62
40502;BME280;29631;49.168;9.848;2023-07-31T11:56:21;96359.31;;;26.30;74.93
40502;BME280;29631;49.168;9.848;2023-07-31T11:58:55;96336.34;;;26.19;74.78
40502;BME280;29631;49.168;9.848;2023-07-31T12:01:22;96345.69;;;26.35;75.21
40502;BME280;29631;49.168;9.848;2023-07-31T12:03:51;96349.88;;;26.41;75.12
40502;BME280;29631;49.168;9.848;2023-07-31T12:06:17;96350.69;;;26.49;74.83
40502;BME280;29631;49.168;9.848;2023-07-31T12:08:43;96342.91;;;26.56;75.35
40502;BME280;29631;49.168;9.848;2023-07-31T12:11:09;96325.38;;;26.45;74.86
40502;BME280;29631;49.168;9.848;2023-07-31T12:13:35;96330.38;;;26.60;74.86
40502;BME280;29631;49.168;9.848;2023-07-31T12:16:02;96315.25;;;26.59;75.28
40502;BME280;29631;49.168;9.848;2023-07-31T12:18:34;96313.34;;;26.68;74.76
40502;BME280;29631;49.168;9.848;2023-07-31T12:21:02;96329.16;;;26.83;74.73
40502;BME280;29631;49.168;9.848;2023-07-31T12:23:31;96334.13;;;26.90;74.69
40502;BME280;29631;49.168;9.848;2023-07-31T12:26:12;96325.84;;;26.86;74.40
40502;BME280;29631;49.168;9.848;2023-07-31T12:28:43;96325.53;;;26.96;74.31
40502;BME280;29631;49.168;9.848;2023-07-31T12:31:14;96317.91;;;26.98;74.61
40502;BME280;29631;49.168;9.848;2023-07-31T12:33:41;96309.13;;;26.93;74.10
40502;BME280;29631;49.168;9.848;2023-07-31T12:36:13;96310.91;;;27.06;74.13
40502;BME280;29631;49.168;9.848;2023-07-31T12:38:40;96326.38;;;27.14;74.00
40502;BME280;29631;49.168;9.848;2023-07-31T12:41:07;96306.16;;;27.11;73.79
40502;BME280;29631;49.168;9.848;2023-07-31T12:43:39;96297.72;;;27.13;74.08
40502;BME280;29631;49.168;9.848;2023-07-31T12:46:05;96298.03;;;27.19;74.09
40502;BME280;29631;49.168;9.848;2023-07-31T12:48:31;96292.78;;;27.23;74.25
40502;BME280;29631;49.168;9.848;2023-07-31T12:50:57;96291.50;;;27.29;73.90
40502;BME280;29631;49.168;9.848;2023-07-31T12:53:23;96288.19;;;27.32;74.03
40502;BME280;29631;49.168;9.848;2023-07-31T12:55:49;96278.78;;;27.38;74.30
40502;BME280;29631;49.168;9.848;2023-07-31T12:58:15;96282.25;;;27.47;74.02
40502;BME280;29631;49.168;9.848;2023-07-31T13:00:41;96294.38;;;27.58;73.76
40502;BME280;29631;49.168;9.848;2023-07-31T13:03:07;96275.88;;;27.60;73.60